sensor_id;sensor_type;location;lat;lon;timestamp;pressure;altitude;pressure_sealevel;temperature;humidity
42411;BME280;28056;51.112;0.984;2024-01-30T00:00:34;101405.85;;;9.55;100.00
42411;BME280;28056;51.112;0.984;2024-01-30T00:03:01;101397.98;;;9.68;100.00
42411;BME280;28056;51.112;0.984;2024-01-30T00:05:29;101394.65;;;10.08;100.00
42411;BME280;28056;51.112;0.984;2024-01-30T00:07:57;101396.13;;;9.43;100.00
42411;BME280;28056;51.112;0.984;2024-01-30T00:10:24;101399.74;;;10.06;100.00
42411;BME280;28056;51.112;0.984;2024-01-30T00:12:51;101404.31;;;9.86;100.00
42411;BME280;28056;51.112;0.984;2024-01-30T00:15:18;101400.53;;;10.19;100.00
42411;BME280;28056;51.112;0.984;2024-01-30T00:17:45;101404.46;;;9.88;100.00
42411;BME280;28056;51.112;0.984;2024-01-30T00:20:12;101401.36;;;10.52;100.00
42411;BME280;28056;51.112;0.984;2024-01-30T00:22:40;101397.50;;;9.96;100.00
42411;BME280;28056;51.112;0.984;2024-01-30T00:25:08;101394.15;;;10.45;100.00
42411;BME280;28056;51.112;0.984;2024-01-30T00:27:35;101397.22;;;10.43;100.00
42411;BME280;28056;51.112;0.984;2024-01-30T00:30:04;101394.86;;;10.69;100.00
42411;BME280;28056;51.112;0.984;2024-01-30T00:32:32;101395.54;;;10.18;100.00
42411;BME280;28056;51.112;0.984;2024-01-30T00:34:59;101392.09;;;10.46;100.00
42411;BME280;28056;51.112;0.984;2024-01-30T00:37:26;101388.50;;;10.47;100.00
42411;BME280;28056;51.112;0.984;2024-01-30T00:39:53;101381.78;;;9.81;100.00
42411;BME280;28056;51.112;0.984;2024-01-30T00:42:21;101382.46;;;10.24;100.00
42411;BME280;28056;51.112;0.984;2024-01-30T00:44:48;101380.01;;;10.59;100.00
42411;BME280;28056;51.112;0.984;2024-01-30T00:47:15;101379.61;;;10.13;100.00
42411;BME280;28056;51.112;0.984;2024-01-30T00:49:43;101379.90;;;9.98;100.00
42411;BME280;28056;51.112;0.984;2024-01-30T00:52:11;101377.55;;;9.93;100.00
42411;BME280;28056;51.112;0.984;2024-01-30T00:54:38;101374.65;;;10.26;100.00
42411;BME280;28056;51.112;0.984;2024-01-30T00:57:06;101367.38;;;9.91;100.00
42411;BME280;28056;51.112;0.984;2024-01-30T00:59:34;101364.75;;;10.31;100.00
42411;BME280;28056;51.112;0.984;2024-01-30T01:04:52;101368.55;;;10.37;100.00
42411;BME280;28056;51.112;0.984;2024-01-30T01:07:19;101367.03;;;10.19;100.00
42411;BME280;28056;51.112;0.984;2024-01-30T01:09:46;101369.77;;;10.91;100.00
42411;BME280;28056;51.112;0.984;2024-01-30T01:12:14;101364.10;;;10.97;100.00
42411;BME280;28056;51.112;0.984;2024-01-30T01:14:41;101369.41;;;10.97;100.00
42411;BME280;28056;51.112;0.984;2024-01-30T01:17:08;101366.79;;;10.58;100.00
42411;BME280;28056;51.112;0.984;2024-01-30T01:19:36;101364.78;;;10.98;100.00
42411;BME280;28056;51.112;0.984;2024-01-30T01:22:04;101363.14;;;10.93;100.00
42411;BME280;28056;51.112;0.984;2024-01-30T01:24:31;101356.56;;;10.97;100.00
42411;BME280;28056;51.112;0.984;2024-01-30T01:26:59;101352.51;;;11.68;100.00
42411;BME280;28056;51.112;0.984;2024-01-30T01:29:26;101348.67;;;11.54;100.00
42411;BME280;28056;51.112;0.984;2024-01-30T01:31:54;101348.65;;;11.35;100.00
42411;BME280;28056;51.112;0.984;2024-01-30T01:34:21;101351.07;;;11.18;100.00
42411;BME280;28056;51.112;0.984;2024-01-30T01:36:49;101353.48;;;10.79;100.00
42411;BME280;28056;51.112;0.984;2024-01-30T01:39:17;101347.93;;;11.80;100.00
42411;BME280;28056;51.112;0.984;2024-01-30T01:41:44;101344.09;;;11.26;100.00
42411;BME280;28056;51.112;0.984;2024-01-30T01:44:12;101342.03;;;11.89;100.00
42411;BME280;28056;51.112;0.984;2024-01-30T01:46:40;101339.93;;;11.64;100.00
42411;BME280;28056;51.112;0.984;2024-01-30T01:49:08;101343.25;;;11.71;100.00
42411;BME280;28056;51.112;0.984;2024-01-30T01:51:37;101343.44;;;12.15;100.00
42411;BME280;28056;51.112;0.984;2024-01-30T01:54:06;101339.52;;;12.43;100.00
42411;BME280;28056;51.112;0.984;2024-01-30T01:56:34;101340.60;;;12.75;100.00
42411;BME280;28056;51.112;0.984;2024-01-30T01:59:05;101336.13;;;13.00;100.00
42411;BME280;28056;51.112;0.984;2024-01-30T02:01:33;101334.89;;;12.10;100.00
42411;BME280;28056;51.112;0.984;2024-01-30T02:04:00;101335.48;;;12.29;100.00
42411;BME280;28056;51.112;0.984;2024-01-30T02:06:28;101333.28;;;12.34;100.00
42411;BME280;28056;51.112;0.984;2024-01-30T02:08:56;101332.38;;;11.62;100.00
42411;BME280;28056;51.112;0.984;2024-01-30T02:11:24;101331.97;;;12.14;100.00
42411;BME280;28056;51.112;0.984;2024-01-30T02:13:52;101334.48;;;12.06;100.00
42411;BME280;28056;51.112;0.984;2024-01-30T02:16:19;101330.73;;;11.80;100.00
42411;BME280;28056;51.112;0.984;2024-01-30T02:18:47;101340.66;;;12.22;100.00
42411;BME280;28056;51.112;0.984;2024-01-30T02:21:15;101343.68;;;12.36;100.00
42411;BME280;28056;51.112;0.984;2024-01-30T02:23:43;101338.34;;;11.44;100.00
42411;BME280;28056;51.112;0.984;2024-01-30T02:26:12;101334.73;;;11.56;100.00
42411;BME280;28056;51.112;0.984;2024-01-30T02:28:39;101327.51;;;11.78;100.00
42411;BME280;28056;51.112;0.984;2024-01-30T02:31:07;101325.70;;;11.59;100.00
42411;BME280;28056;51.112;0.984;2024-01-30T02:33:35;101315.66;;;11.25;100.00
42411;BME280;28056;51.112;0.984;2024-01-30T02:36:02;101308.78;;;11.07;100.00
42411;BME280;28056;51.112;0.984;2024-01-30T02:38:29;101305.45;;;11.36;100.00
42411;BME280;28056;51.112;0.984;2024-01-30T02:40:57;101314.09;;;10.73;100.00
42411;BME280;28056;51.112;0.984;2024-01-30T02:43:25;101318.87;;;9.47;100.00
42411;BME280;28056;51.112;0.984;2024-01-30T02:45:52;101315.75;;;10.86;100.00
42411;BME280;28056;51.112;0.984;2024-01-30T02:48:20;101319.58;;;10.68;100.00
42411;BME280;28056;51.112;0.984;2024-01-30T02:50:47;101318.08;;;10.65;100.00
42411;BME280;28056;51.112;0.984;2024-01-30T02:53:14;101307.00;;;10.98;100.00
42411;BME280;28056;51.112;0.984;2024-01-30T02:55:42;101309.38;;;10.60;100.00
42411;BME280;28056;51.112;0.984;2024-01-30T02:58:10;101303.85;;;10.38;100.00
42411;BME280;28056;51.112;0.984;2024-01-30T03:00:37;101297.81;;;10.75;100.00
42411;BME280;28056;51.112;0.984;2024-01-30T03:03:05;101297.60;;;10.84;100.00
42411;BME280;28056;51.112;0.984;2024-01-30T03:05:33;101308.34;;;10.38;100.00
42411;BME280;28056;51.112;0.984;2024-01-30T03:08:00;101310.09;;;10.73;100.00
42411;BME280;28056;51.112;0.984;2024-01-30T03:10:28;101307.23;;;10.76;100.00
42411;BME280;28056;51.112;0.984;2024-01-30T03:12:55;101308.86;;;10.67;100.00
42411;BME280;28056;51.112;0.984;2024-01-30T03:15:49;101313.54;;;10.39;100.00
42411;BME280;28056;51.112;0.984;2024-01-30T03:18:17;101315.31;;;10.13;100.00
42411;BME280;28056;51.112;0.984;2024-01-30T03:20:45;101316.67;;;9.97;100.00
42411;BME280;28056;51.112;0.984;2024-01-30T03:23:13;101313.55;;;9.80;100.00
42411;BME280;28056;51.112;0.984;2024-01-30T03:25:40;101314.29;;;10.34;100.00
42411;BME280;28056;51.112;0.984;2024-01-30T03:28:08;101321.77;;;10.28;100.00
42411;BME280;28056;51.112;0.984;2024-01-30T03:30:35;101320.32;;;9.86;100.00
42411;BME280;28056;51.112;0.984;2024-01-30T03:33:03;101319.30;;;10.58;100.00
42411;BME280;28056;51.112;0.984;2024-01-30T03:35:31;101316.63;;;10.67;100.00
42411;BME280;28056;51.112;0.984;2024-01-30T03:37:58;101318.94;;;10.61;100.00
42411;BME280;28056;51.112;0.984;2024-01-30T03:40:25;101326.72;;;10.20;100.00
42411;BME280;28056;51.112;0.984;2024-01-30T03:42:53;101326.85;;;9.75;100.00
42411;BME280;28056;51.112;0.984;2024-01-30T03:45:20;101317.94;;;10.44;100.00
42411;BME280;28056;51.112;0.984;2024-01-30T03:47:48;101299.63;;;10.22;100.00
42411;BME280;28056;51.112;0.984;2024-01-30T03:50:16;101297.14;;;10.46;100.00
42411;BME280;28056;51.112;0.984;2024-01-30T03:52:43;101305.19;;;9.95;100.00
42411;BME280;28056;51.112;0.984;2024-01-30T03:55:11;101311.26;;;10.46;100.00
42411;BME280;28056;51.112;0.984;2024-01-30T03:57:39;101310.31;;;9.91;100.00
42411;BME280;28056;51.112;0.984;2024-01-30T04:00:08;101310.48;;;10.15;100.00
42411;BME280;28056;51.112;0.984;2024-01-30T04:02:35;101313.34;;;9.37;100.00
42411;BME280;28056;51.112;0.984;2024-01-30T04:05:03;101311.51;;;8.64;100.00
42411;BME280;28056;51.112;0.984;2024-01-30T04:07:31;101311.89;;;8.77;100.00
42411;BME280;28056;51.112;0.984;2024-01-30T04:09:58;101303.79;;;8.31;100.00
42411;BME280;28056;51.112;0.984;2024-01-30T04:12:26;101300.04;;;8.32;100.00
42411;BME280;28056;51.112;0.984;2024-01-30T04:14:54;101331.02;;;8.49;100.00
42411;BME280;28056;51.112;0.984;2024-01-30T04:17:21;101310.69;;;7.75;100.00
42411;BME280;28056;51.112;0.984;2024-01-30T04:19:49;101313.57;;;8.66;100.00
42411;BME280;28056;51.112;0.984;2024-01-30T04:22:16;101319.20;;;9.28;100.00
42411;BME280;28056;51.112;0.984;2024-01-30T04:24:43;101322.32;;;8.83;100.00
42411;BME280;28056;51.112;0.984;2024-01-30T04:27:10;101333.46;;;9.59;100.00
42411;BME280;28056;51.112;0.984;2024-01-30T04:29:38;101335.40;;;8.96;100.00
42411;BME280;28056;51.112;0.984;2024-01-30T04:32:06;101337.22;;;7.91;100.00
42411;BME280;28056;51.112;0.984;2024-01-30T04:34:33;101332.31;;;8.27;100.00
42411;BME280;28056;51.112;0.984;2024-01-30T04:37:01;101324.99;;;8.50;100.00
42411;BME280;28056;51.112;0.984;2024-01-30T04:39:28;101332.64;;;8.13;100.00
42411;BME280;28056;51.112;0.984;2024-01-30T04:41:56;101328.01;;;8.17;100.00
42411;BME280;28056;51.112;0.984;2024-01-30T04:44:23;101328.00;;;7.95;100.00
42411;BME280;28056;51.112;0.984;2024-01-30T04:46:51;101341.79;;;8.68;100.00
42411;BME280;28056;51.112;0.984;2024-01-30T04:49:18;101325.32;;;7.81;100.00
42411;BME280;28056;51.112;0.984;2024-01-30T04:51:46;101338.36;;;7.90;100.00
42411;BME280;28056;51.112;0.984;2024-01-30T04:54:14;101344.70;;;8.23;100.00
42411;BME280;28056;51.112;0.984;2024-01-30T04:56:42;101347.26;;;8.31;100.00
42411;BME280;28056;51.112;0.984;2024-01-30T04:59:10;101346.46;;;8.19;100.00
42411;BME280;28056;51.112;0.984;2024-01-30T05:01:37;101329.36;;;8.63;100.00
42411;BME280;28056;51.112;0.984;2024-01-30T05:04:07;101348.18;;;8.27;100.00
42411;BME280;28056;51.112;0.984;2024-01-30T05:06:35;101342.51;;;7.84;100.00
42411;BME280;28056;51.112;0.984;2024-01-30T05:09:02;101343.93;;;7.73;100.00
42411;BME280;28056;51.112;0.984;2024-01-30T05:11:29;101333.35;;;8.53;100.00
42411;BME280;28056;51.112;0.984;2024-01-30T05:13:57;101342.01;;;8.35;100.00
42411;BME280;28056;51.112;0.984;2024-01-30T05:16:24;101346.34;;;8.27;100.00
42411;BME280;28056;51.112;0.984;2024-01-30T05:18:51;101346.13;;;7.79;100.00
42411;BME280;28056;51.112;0.984;2024-01-30T05:21:18;101339.58;;;7.75;100.00
42411;BME280;28056;51.112;0.984;2024-01-30T05:23:46;101347.03;;;7.73;100.00
42411;BME280;28056;51.112;0.984;2024-01-30T05:26:14;101359.92;;;8.09;100.00
42411;BME280;28056;51.112;0.984;2024-01-30T05:28:41;101358.82;;;8.42;100.00
42411;BME280;28056;51.112;0.984;2024-01-30T05:31:09;101362.81;;;8.73;100.00
42411;BME280;28056;51.112;0.984;2024-01-30T05:33:37;101378.04;;;7.69;100.00
42411;BME280;28056;51.112;0.984;2024-01-30T05:36:05;101353.87;;;7.26;100.00
42411;BME280;28056;51.112;0.984;2024-01-30T05:38:33;101352.74;;;7.72;100.00
42411;BME280;28056;51.112;0.984;2024-01-30T05:41:00;101358.86;;;8.73;100.00
42411;BME280;28056;51.112;0.984;2024-01-30T05:43:27;101362.44;;;8.45;100.00
42411;BME280;28056;51.112;0.984;2024-01-30T05:45:55;101350.99;;;8.07;100.00
42411;BME280;28056;51.112;0.984;2024-01-30T05:48:22;101360.57;;;8.25;100.00
42411;BME280;28056;51.112;0.984;2024-01-30T05:50:50;101362.90;;;8.74;100.00
42411;BME280;28056;51.112;0.984;2024-01-30T05:53:17;101360.13;;;8.39;100.00
42411;BME280;28056;51.112;0.984;2024-01-30T05:55:45;101359.24;;;8.66;100.00
42411;BME280;28056;51.112;0.984;2024-01-30T05:58:12;101364.77;;;8.41;100.00
42411;BME280;28056;51.112;0.984;2024-01-30T06:00:40;101378.58;;;8.35;100.00
42411;BME280;28056;51.112;0.984;2024-01-30T06:03:08;101382.50;;;8.18;100.00
42411;BME280;28056;51.112;0.984;2024-01-30T06:05:36;101382.98;;;9.10;100.00
42411;BME280;28056;51.112;0.984;2024-01-30T06:08:04;101380.68;;;8.46;100.00
42411;BME280;28056;51.112;0.984;2024-01-30T06:10:31;101381.46;;;7.97;100.00
42411;BME280;28056;51.112;0.984;2024-01-30T06:12:58;101384.05;;;8.10;100.00
42411;BME280;28056;51.112;0.984;2024-01-30T06:15:26;101383.98;;;7.87;100.00
42411;BME280;28056;51.112;0.984;2024-01-30T06:17:53;101390.89;;;8.62;100.00
42411;BME280;28056;51.112;0.984;2024-01-30T06:20:21;101389.92;;;8.44;100.00
42411;BME280;28056;51.112;0.984;2024-01-30T06:22:48;101387.48;;;7.74;100.00
42411;BME280;28056;51.112;0.984;2024-01-30T06:25:16;101398.51;;;8.15;100.00
42411;BME280;28056;51.112;0.984;2024-01-30T06:27:44;101408.78;;;8.21;100.00
42411;BME280;28056;51.112;0.984;2024-01-30T06:30:12;101411.46;;;9.11;100.00
42411;BME280;28056;51.112;0.984;2024-01-30T06:32:40;101418.63;;;8.33;100.00
42411;BME280;28056;51.112;0.984;2024-01-30T06:35:07;101430.82;;;7.20;100.00
42411;BME280;28056;51.112;0.984;2024-01-30T06:37:35;101452.84;;;6.61;100.00
42411;BME280;28056;51.112;0.984;2024-01-30T06:40:02;101452.07;;;5.90;100.00
42411;BME280;28056;51.112;0.984;2024-01-30T06:42:29;101446.37;;;5.66;100.00
42411;BME280;28056;51.112;0.984;2024-01-30T06:44:57;101454.18;;;6.17;100.00
42411;BME280;28056;51.112;0.984;2024-01-30T06:47:25;101455.61;;;6.95;100.00
42411;BME280;28056;51.112;0.984;2024-01-30T06:49:52;101441.69;;;7.33;100.00
42411;BME280;28056;51.112;0.984;2024-01-30T06:52:19;101449.68;;;7.81;100.00
42411;BME280;28056;51.112;0.984;2024-01-30T06:54:46;101455.63;;;7.76;100.00
42411;BME280;28056;51.112;0.984;2024-01-30T06:57:14;101463.22;;;7.87;100.00
42411;BME280;28056;51.112;0.984;2024-01-30T06:59:41;101460.45;;;7.89;100.00
42411;BME280;28056;51.112;0.984;2024-01-30T07:02:08;101467.79;;;6.90;100.00
42411;BME280;28056;51.112;0.984;2024-01-30T07:04:35;101478.07;;;7.48;100.00
42411;BME280;28056;51.112;0.984;2024-01-30T07:07:03;101477.12;;;7.76;100.00
42411;BME280;28056;51.112;0.984;2024-01-30T07:09:30;101488.75;;;5.94;100.00
42411;BME280;28056;51.112;0.984;2024-01-30T07:11:57;101480.21;;;6.87;100.00
42411;BME280;28056;51.112;0.984;2024-01-30T07:14:24;101490.36;;;6.47;100.00
42411;BME280;28056;51.112;0.984;2024-01-30T07:16:52;101501.46;;;6.89;100.00
42411;BME280;28056;51.112;0.984;2024-01-30T07:19:19;101504.06;;;6.45;100.00
42411;BME280;28056;51.112;0.984;2024-01-30T07:21:46;101492.54;;;7.89;100.00
42411;BME280;28056;51.112;0.984;2024-01-30T07:24:13;101496.59;;;6.31;100.00
42411;BME280;28056;51.112;0.984;2024-01-30T07:26:41;101501.77;;;6.60;100.00
42411;BME280;28056;51.112;0.984;2024-01-30T07:29:09;101510.35;;;6.53;100.00
42411;BME280;28056;51.112;0.984;2024-01-30T07:31:36;101520.43;;;6.36;100.00
42411;BME280;28056;51.112;0.984;2024-01-30T07:34:03;101525.07;;;6.29;100.00
42411;BME280;28056;51.112;0.984;2024-01-30T07:36:30;101530.41;;;6.16;100.00
42411;BME280;28056;51.112;0.984;2024-01-30T07:38:58;101530.77;;;5.57;100.00
42411;BME280;28056;51.112;0.984;2024-01-30T07:41:24;101538.83;;;6.69;100.00
42411;BME280;28056;51.112;0.984;2024-01-30T07:43:51;101549.61;;;6.38;100.00
42411;BME280;28056;51.112;0.984;2024-01-30T07:46:19;101547.74;;;6.78;100.00
42411;BME280;28056;51.112;0.984;2024-01-30T07:48:54;101552.57;;;5.52;100.00
42411;BME280;28056;51.112;0.984;2024-01-30T07:51:32;101549.69;;;5.61;100.00
42411;BME280;28056;51.112;0.984;2024-01-30T07:54:01;101544.05;;;6.23;100.00
42411;BME280;28056;51.112;0.984;2024-01-30T07:56:28;101546.07;;;6.79;100.00
42411;BME280;28056;51.112;0.984;2024-01-30T07:58:55;101555.93;;;6.49;100.00
42411;BME280;28056;51.112;0.984;2024-01-30T08:01:22;101553.92;;;5.88;100.00
42411;BME280;28056;51.112;0.984;2024-01-30T08:03:49;101565.33;;;6.26;100.00
42411;BME280;28056;51.112;0.984;2024-01-30T08:06:16;101574.94;;;6.17;100.00
42411;BME280;28056;51.112;0.984;2024-01-30T08:08:44;101575.16;;;5.72;100.00
42411;BME280;28056;51.112;0.984;2024-01-30T08:11:12;101586.09;;;6.47;100.00
42411;BME280;28056;51.112;0.984;2024-01-30T08:13:39;101586.72;;;6.20;100.00
42411;BME280;28056;51.112;0.984;2024-01-30T08:16:07;101586.95;;;6.28;100.00
42411;BME280;28056;51.112;0.984;2024-01-30T08:18:35;101591.45;;;6.26;100.00
42411;BME280;28056;51.112;0.984;2024-01-30T08:21:02;101597.73;;;5.62;100.00
42411;BME280;28056;51.112;0.984;2024-01-30T08:23:29;101606.73;;;5.81;100.00
42411;BME280;28056;51.112;0.984;2024-01-30T08:25:56;101612.37;;;5.29;100.00
42411;BME280;28056;51.112;0.984;2024-01-30T08:28:23;101612.67;;;5.10;100.00
42411;BME280;28056;51.112;0.984;2024-01-30T08:30:50;101607.11;;;5.55;100.00
42411;BME280;28056;51.112;0.984;2024-01-30T08:33:17;101608.46;;;5.28;100.00
42411;BME280;28056;51.112;0.984;2024-01-30T08:35:44;101605.75;;;5.68;100.00
42411;BME280;28056;51.112;0.984;2024-01-30T08:38:11;101617.46;;;5.88;100.00
42411;BME280;28056;51.112;0.984;2024-01-30T08:40:38;101618.23;;;6.39;100.00
42411;BME280;28056;51.112;0.984;2024-01-30T08:43:05;101625.12;;;6.09;100.00
42411;BME280;28056;51.112;0.984;2024-01-30T08:45:33;101626.35;;;5.92;100.00
42411;BME280;28056;51.112;0.984;2024-01-30T08:48:00;101633.77;;;5.86;100.00
42411;BME280;28056;51.112;0.984;2024-01-30T08:50:28;101642.15;;;5.31;100.00
42411;BME280;28056;51.112;0.984;2024-01-30T08:52:56;101646.97;;;4.99;100.00
42411;BME280;28056;51.112;0.984;2024-01-30T08:55:23;101666.44;;;5.62;100.00
42411;BME280;28056;51.112;0.984;2024-01-30T08:57:50;101663.43;;;4.87;100.00
42411;BME280;28056;51.112;0.984;2024-01-30T09:00:18;101659.97;;;5.21;100.00
42411;BME280;28056;51.112;0.984;2024-01-30T09:02:45;101672.22;;;4.97;100.00
42411;BME280;28056;51.112;0.984;2024-01-30T09:05:12;101666.97;;;4.77;100.00
42411;BME280;28056;51.112;0.984;2024-01-30T09:07:40;101668.50;;;4.56;100.00
42411;BME280;28056;51.112;0.984;2024-01-30T09:10:08;101668.73;;;5.11;100.00
42411;BME280;28056;51.112;0.984;2024-01-30T09:12:35;101671.84;;;5.16;100.00
42411;BME280;28056;51.112;0.984;2024-01-30T09:15:03;101677.96;;;5.51;100.00
42411;BME280;28056;51.112;0.984;2024-01-30T09:17:30;101672.37;;;5.03;100.00
42411;BME280;28056;51.112;0.984;2024-01-30T09:19:57;101675.16;;;5.50;100.00
42411;BME280;28056;51.112;0.984;2024-01-30T09:22:24;101689.61;;;4.80;100.00
42411;BME280;28056;51.112;0.984;2024-01-30T09:24:51;101687.96;;;4.56;100.00
42411;BME280;28056;51.112;0.984;2024-01-30T09:27:19;101691.28;;;4.62;100.00
42411;BME280;28056;51.112;0.984;2024-01-30T09:29:46;101697.77;;;4.65;100.00
42411;BME280;28056;51.112;0.984;2024-01-30T09:32:14;101692.34;;;4.89;100.00
42411;BME280;28056;51.112;0.984;2024-01-30T09:34:41;101705.78;;;4.90;100.00
42411;BME280;28056;51.112;0.984;2024-01-30T09:37:08;101700.55;;;4.85;100.00
42411;BME280;28056;51.112;0.984;2024-01-30T09:39:35;101712.42;;;4.59;100.00
42411;BME280;28056;51.112;0.984;2024-01-30T09:42:15;101712.93;;;4.53;100.00
42411;BME280;28056;51.112;0.984;2024-01-30T09:44:47;101719.45;;;5.15;100.00
42411;BME280;28056;51.112;0.984;2024-01-30T09:47:17;101729.66;;;5.01;100.00
42411;BME280;28056;51.112;0.984;2024-01-30T09:49:45;101728.22;;;4.62;100.00
42411;BME280;28056;51.112;0.984;2024-01-30T09:52:13;101742.37;;;4.83;100.00
42411;BME280;28056;51.112;0.984;2024-01-30T09:54:41;101740.89;;;4.72;100.00
42411;BME280;28056;51.112;0.984;2024-01-30T09:57:09;101752.98;;;4.63;100.00
42411;BME280;28056;51.112;0.984;2024-01-30T09:59:38;101754.30;;;4.80;100.00
42411;BME280;28056;51.112;0.984;2024-01-30T10:02:05;101764.17;;;4.73;100.00
42411;BME280;28056;51.112;0.984;2024-01-30T10:04:34;101762.64;;;5.01;100.00
42411;BME280;28056;51.112;0.984;2024-01-30T10:07:02;101763.47;;;4.55;100.00
42411;BME280;28056;51.112;0.984;2024-01-30T10:09:32;101768.71;;;4.83;100.00
42411;BME280;28056;51.112;0.984;2024-01-30T10:11:59;101772.74;;;4.77;100.00
42411;BME280;28056;51.112;0.984;2024-01-30T10:14:27;101769.52;;;5.60;100.00
42411;BME280;28056;51.112;0.984;2024-01-30T10:16:57;101769.73;;;4.95;100.00
42411;BME280;28056;51.112;0.984;2024-01-30T10:19:25;101785.74;;;4.66;100.00
42411;BME280;28056;51.112;0.984;2024-01-30T10:21:53;101787.77;;;5.17;100.00
42411;BME280;28056;51.112;0.984;2024-01-30T10:24:24;101788.06;;;4.94;100.00
42411;BME280;28056;51.112;0.984;2024-01-30T10:26:52;101791.88;;;5.06;100.00
42411;BME280;28056;51.112;0.984;2024-01-30T10:29:20;101792.79;;;4.42;100.00
42411;BME280;28056;51.112;0.984;2024-01-30T10:32:03;101802.96;;;4.29;100.00
42411;BME280;28056;51.112;0.984;2024-01-30T10:34:31;101806.10;;;4.49;100.00
42411;BME280;28056;51.112;0.984;2024-01-30T10:37:05;101818.81;;;4.31;100.00
42411;BME280;28056;51.112;0.984;2024-01-30T10:39:38;101818.81;;;4.56;100.00
42411;BME280;28056;51.112;0.984;2024-01-30T10:42:07;101830.80;;;4.50;100.00
42411;BME280;28056;51.112;0.984;2024-01-30T10:44:47;101836.68;;;4.52;100.00
42411;BME280;28056;51.112;0.984;2024-01-30T10:47:26;101832.71;;;3.94;100.00
42411;BME280;28056;51.112;0.984;2024-01-30T10:49:55;101837.07;;;4.14;100.00
42411;BME280;28056;51.112;0.984;2024-01-30T10:52:24;101842.08;;;4.14;100.00
42411;BME280;28056;51.112;0.984;2024-01-30T10:54:53;101847.43;;;4.19;100.00
42411;BME280;28056;51.112;0.984;2024-01-30T10:57:22;101854.23;;;4.54;100.00
42411;BME280;28056;51.112;0.984;2024-01-30T10:59:53;101847.70;;;4.45;100.00
42411;BME280;28056;51.112;0.984;2024-01-30T11:02:23;101848.54;;;4.54;100.00
42411;BME280;28056;51.112;0.984;2024-01-30T11:04:57;101854.58;;;4.50;100.00
42411;BME280;28056;51.112;0.984;2024-01-30T11:07:26;101859.08;;;5.05;100.00
42411;BME280;28056;51.112;0.984;2024-01-30T11:09:59;101855.12;;;4.54;100.00
42411;BME280;28056;51.112;0.984;2024-01-30T11:12:28;101857.90;;;4.40;100.00
42411;BME280;28056;51.112;0.984;2024-01-30T11:15:05;101862.77;;;4.52;100.00
42411;BME280;28056;51.112;0.984;2024-01-30T11:17:42;101866.21;;;4.73;100.00
42411;BME280;28056;51.112;0.984;2024-01-30T11:20:11;101868.74;;;4.71;100.00
42411;BME280;28056;51.112;0.984;2024-01-30T11:22:42;101866.52;;;4.85;100.00
42411;BME280;28056;51.112;0.984;2024-01-30T11:25:12;101864.51;;;4.51;100.00
42411;BME280;28056;51.112;0.984;2024-01-30T11:27:42;101855.92;;;4.66;100.00
42411;BME280;28056;51.112;0.984;2024-01-30T11:30:21;101859.37;;;4.26;100.00
42411;BME280;28056;51.112;0.984;2024-01-30T11:32:59;101869.34;;;4.44;100.00
42411;BME280;28056;51.112;0.984;2024-01-30T11:35:26;101872.06;;;4.55;100.00
42411;BME280;28056;51.112;0.984;2024-01-30T11:37:54;101874.53;;;4.88;100.00
42411;BME280;28056;51.112;0.984;2024-01-30T11:40:26;101870.19;;;4.25;100.00
42411;BME280;28056;51.112;0.984;2024-01-30T11:42:55;101870.92;;;4.35;100.00
42411;BME280;28056;51.112;0.984;2024-01-30T11:45:23;101876.05;;;4.86;100.00
42411;BME280;28056;51.112;0.984;2024-01-30T11:47:50;101882.87;;;4.94;100.00
42411;BME280;28056;51.112;0.984;2024-01-30T11:50:18;101886.03;;;5.01;100.00
42411;BME280;28056;51.112;0.984;2024-01-30T11:52:46;101881.34;;;4.85;100.00
42411;BME280;28056;51.112;0.984;2024-01-30T11:55:14;101884.09;;;4.77;100.00
42411;BME280;28056;51.112;0.984;2024-01-30T11:57:41;101883.99;;;4.92;100.00
42411;BME280;28056;51.112;0.984;2024-01-30T12:00:15;101885.35;;;4.65;100.00
42411;BME280;28056;51.112;0.984;2024-01-30T12:02:43;101890.90;;;4.78;100.00
42411;BME280;28056;51.112;0.984;2024-01-30T12:05:11;101886.15;;;5.01;100.00
42411;BME280;28056;51.112;0.984;2024-01-30T12:07:39;101888.45;;;4.80;100.00
42411;BME280;28056;51.112;0.984;2024-01-30T12:10:08;101892.65;;;4.80;100.00
42411;BME280;28056;51.112;0.984;2024-01-30T12:12:36;101900.39;;;4.94;100.00
42411;BME280;28056;51.112;0.984;2024-01-30T12:15:04;101910.19;;;4.84;100.00
42411;BME280;28056;51.112;0.984;2024-01-30T12:17:33;101914.30;;;4.85;100.00
42411;BME280;28056;51.112;0.984;2024-01-30T12:20:05;101913.02;;;4.38;100.00
42411;BME280;28056;51.112;0.984;2024-01-30T12:22:36;101915.13;;;4.63;100.00
42411;BME280;28056;51.112;0.984;2024-01-30T12:25:05;101920.45;;;4.64;100.00
42411;BME280;28056;51.112;0.984;2024-01-30T12:27:33;101925.72;;;4.49;100.00
42411;BME280;28056;51.112;0.984;2024-01-30T12:30:00;101929.64;;;4.81;100.00
42411;BME280;28056;51.112;0.984;2024-01-30T12:32:28;101933.67;;;4.60;100.00
42411;BME280;28056;51.112;0.984;2024-01-30T12:34:56;101935.96;;;5.01;100.00
42411;BME280;28056;51.112;0.984;2024-01-30T12:37:24;101933.90;;;4.38;100.00
42411;BME280;28056;51.112;0.984;2024-01-30T12:39:52;101931.26;;;4.43;100.00
42411;BME280;28056;51.112;0.984;2024-01-30T12:42:20;101934.52;;;4.59;100.00
42411;BME280;28056;51.112;0.984;2024-01-30T12:44:48;101932.29;;;4.45;100.00
42411;BME280;28056;51.112;0.984;2024-01-30T12:47:16;101931.54;;;4.23;100.00
42411;BME280;28056;51.112;0.984;2024-01-30T12:49:44;101940.00;;;4.55;100.00
42411;BME280;28056;51.112;0.984;2024-01-30T12:52:14;101944.55;;;4.60;100.00
42411;BME280;28056;51.112;0.984;2024-01-30T12:54:42;101940.28;;;4.85;100.00